sensor_id;sensor_type;location;lat;lon;timestamp;temperature;humidity
7566;DHT22;3824;48.010;7.832;2022-12-18T00:17:04;-5.70;99.90
7566;DHT22;3824;48.010;7.832;2022-12-18T00:21:58;-5.80;99.90
7566;DHT22;3824;48.010;7.832;2022-12-18T00:29:20;-5.90;99.90
7566;DHT22;3824;48.010;7.832;2022-12-18T00:31:47;-6.00;99.90
7566;DHT22;3824;48.010;7.832;2022-12-18T00:34:16;-6.00;99.90
7566;DHT22;3824;48.010;7.832;2022-12-18T00:39:11;-6.10;99.90
7566;DHT22;3824;48.010;7.832;2022-12-18T00:49:20;-6.30;99.90
7566;DHT22;3824;48.010;7.832;2022-12-18T01:06:31;-6.40;99.90
7566;DHT22;3824;48.010;7.832;2022-12-18T01:13:53;-6.60;99.90
7566;DHT22;3824;48.010;7.832;2022-12-18T01:18:51;-6.70;99.90
7566;DHT22;3824;48.010;7.832;2022-12-18T01:23:51;-6.70;99.90
7566;DHT22;3824;48.010;7.832;2022-12-18T01:31:16;-6.60;99.90
7566;DHT22;3824;48.010;7.832;2022-12-18T01:36:15;-6.70;99.90
7566;DHT22;3824;48.010;7.832;2022-12-18T01:41:11;-6.70;99.90
7566;DHT22;3824;48.010;7.832;2022-12-18T01:43:45;-6.70;99.90
7566;DHT22;3824;48.010;7.832;2022-12-18T01:51:09;-6.70;99.90
7566;DHT22;3824;48.010;7.832;2022-12-18T01:53:37;-6.70;99.90
7566;DHT22;3824;48.010;7.832;2022-12-18T01:58:39;-6.70;99.90
7566;DHT22;3824;48.010;7.832;2022-12-18T02:01:08;-6.70;99.90
7566;DHT22;3824;48.010;7.832;2022-12-18T02:03:35;-6.70;99.90
7566;DHT22;3824;48.010;7.832;2022-12-18T02:06:07;-6.70;99.90
7566;DHT22;3824;48.010;7.832;2022-12-18T02:08:41;-6.70;99.90
7566;DHT22;3824;48.010;7.832;2022-12-18T02:11:19;-6.70;99.90
7566;DHT22;3824;48.010;7.832;2022-12-18T02:13:55;-6.70;99.90
7566;DHT22;3824;48.010;7.832;2022-12-18T02:16:29;-6.80;99.90
7566;DHT22;3824;48.010;7.832;2022-12-18T02:19:05;-6.80;99.90
7566;DHT22;3824;48.010;7.832;2022-12-18T02:21:40;-6.90;99.90
7566;DHT22;3824;48.010;7.832;2022-12-18T02:24:20;-6.90;99.90
7566;DHT22;3824;48.010;7.832;2022-12-18T02:26:55;-6.90;99.90
7566;DHT22;3824;48.010;7.832;2022-12-18T02:29:25;-6.90;99.90
7566;DHT22;3824;48.010;7.832;2022-12-18T02:31:55;-6.90;99.90
7566;DHT22;3824;48.010;7.832;2022-12-18T02:34:34;-6.90;99.90
7566;DHT22;3824;48.010;7.832;2022-12-18T02:37:06;-6.90;99.90
7566;DHT22;3824;48.010;7.832;2022-12-18T02:39:35;-6.90;99.90
7566;DHT22;3824;48.010;7.832;2022-12-18T02:42:04;-6.90;99.90
7566;DHT22;3824;48.010;7.832;2022-12-18T02:49:34;-6.90;99.90
7566;DHT22;3824;48.010;7.832;2022-12-18T02:52:11;-6.90;99.90
7566;DHT22;3824;48.010;7.832;2022-12-18T02:54:55;-7.00;99.90
7566;DHT22;3824;48.010;7.832;2022-12-18T02:57:33;-7.00;99.90
7566;DHT22;3824;48.010;7.832;2022-12-18T03:00:05;-7.00;99.90
7566;DHT22;3824;48.010;7.832;2022-12-18T03:02:38;-7.00;99.90
7566;DHT22;3824;48.010;7.832;2022-12-18T03:05:11;-7.00;99.90
7566;DHT22;3824;48.010;7.832;2022-12-18T03:07:43;-7.00;99.90
7566;DHT22;3824;48.010;7.832;2022-12-18T03:10:16;-7.00;99.90
7566;DHT22;3824;48.010;7.832;2022-12-18T03:12:50;-7.00;99.90
7566;DHT22;3824;48.010;7.832;2022-12-18T03:15:22;-7.00;99.90
7566;DHT22;3824;48.010;7.832;2022-12-18T03:17:54;-7.00;99.90
7566;DHT22;3824;48.010;7.832;2022-12-18T03:20:23;-6.90;99.90
7566;DHT22;3824;48.010;7.832;2022-12-18T03:22:57;-6.90;99.90
7566;DHT22;3824;48.010;7.832;2022-12-18T03:25:28;-6.80;99.90
7566;DHT22;3824;48.010;7.832;2022-12-18T03:28:00;-6.80;99.90
7566;DHT22;3824;48.010;7.832;2022-12-18T03:30:29;-6.80;99.90
7566;DHT22;3824;48.010;7.832;2022-12-18T03:33:02;-6.80;99.90
7566;DHT22;3824;48.010;7.832;2022-12-18T03:35:35;-6.80;99.90
7566;DHT22;3824;48.010;7.832;2022-12-18T03:38:02;-6.90;99.90
7566;DHT22;3824;48.010;7.832;2022-12-18T03:40:33;-6.80;99.90
7566;DHT22;3824;48.010;7.832;2022-12-18T03:43:08;-6.90;99.90
7566;DHT22;3824;48.010;7.832;2022-12-18T03:45:40;-6.90;99.90
7566;DHT22;3824;48.010;7.832;2022-12-18T03:48:14;-6.90;99.90
7566;DHT22;3824;48.010;7.832;2022-12-18T03:50:46;-6.90;99.90
7566;DHT22;3824;48.010;7.832;2022-12-18T03:53:23;-6.90;99.90
7566;DHT22;3824;48.010;7.832;2022-12-18T03:55:51;-6.80;99.90
7566;DHT22;3824;48.010;7.832;2022-12-18T03:58:23;-6.80;99.90
7566;DHT22;3824;48.010;7.832;2022-12-18T04:00:52;-6.80;99.90
7566;DHT22;3824;48.010;7.832;2022-12-18T04:03:21;-6.90;99.90
7566;DHT22;3824;48.010;7.832;2022-12-18T04:05:49;-6.90;99.90
7566;DHT22;3824;48.010;7.832;2022-12-18T04:08:17;-6.90;99.90
7566;DHT22;3824;48.010;7.832;2022-12-18T04:10:44;-6.80;99.90
7566;DHT22;3824;48.010;7.832;2022-12-18T04:13:11;-6.90;99.90
7566;DHT22;3824;48.010;7.832;2022-12-18T04:15:39;-6.90;99.90
7566;DHT22;3824;48.010;7.832;2022-12-18T04:18:08;-6.90;99.90
7566;DHT22;3824;48.010;7.832;2022-12-18T04:20:34;-6.90;99.90
7566;DHT22;3824;48.010;7.832;2022-12-18T04:23:01;-7.00;99.90
7566;DHT22;3824;48.010;7.832;2022-12-18T04:25:28;-7.00;99.90
7566;DHT22;3824;48.010;7.832;2022-12-18T04:27:55;-7.10;99.90
7566;DHT22;3824;48.010;7.832;2022-12-18T04:30:22;-7.10;99.90
7566;DHT22;3824;48.010;7.832;2022-12-18T04:32:50;-7.10;99.90
7566;DHT22;3824;48.010;7.832;2022-12-18T04:35:17;-7.10;99.90
7566;DHT22;3824;48.010;7.832;2022-12-18T04:37:44;-7.10;99.90
7566;DHT22;3824;48.010;7.832;2022-12-18T04:40:11;-7.10;99.90
7566;DHT22;3824;48.010;7.832;2022-12-18T04:42:39;-7.10;99.90
7566;DHT22;3824;48.010;7.832;2022-12-18T04:45:07;-7.10;99.90
7566;DHT22;3824;48.010;7.832;2022-12-18T04:47:34;-7.20;99.90
7566;DHT22;3824;48.010;7.832;2022-12-18T04:50:03;-7.20;99.90
7566;DHT22;3824;48.010;7.832;2022-12-18T04:52:33;-7.30;99.90
7566;DHT22;3824;48.010;7.832;2022-12-18T04:55:00;-7.30;99.90
7566;DHT22;3824;48.010;7.832;2022-12-18T04:57:27;-7.30;99.90
7566;DHT22;3824;48.010;7.832;2022-12-18T04:59:53;-7.30;99.90
7566;DHT22;3824;48.010;7.832;2022-12-18T05:02:20;-7.40;99.90
7566;DHT22;3824;48.010;7.832;2022-12-18T05:04:47;-7.40;99.90
7566;DHT22;3824;48.010;7.832;2022-12-18T05:07:15;-7.50;99.90
7566;DHT22;3824;48.010;7.832;2022-12-18T05:09:42;-7.50;99.90
7566;DHT22;3824;48.010;7.832;2022-12-18T05:12:09;-7.50;99.90
7566;DHT22;3824;48.010;7.832;2022-12-18T05:14:35;-7.50;99.90
7566;DHT22;3824;48.010;7.832;2022-12-18T05:17:02;-7.50;99.90
7566;DHT22;3824;48.010;7.832;2022-12-18T05:19:29;-7.50;99.90
7566;DHT22;3824;48.010;7.832;2022-12-18T05:21:56;-7.50;99.90
7566;DHT22;3824;48.010;7.832;2022-12-18T05:24:24;-7.50;99.90
7566;DHT22;3824;48.010;7.832;2022-12-18T05:29:18;-7.50;99.90
7566;DHT22;3824;48.010;7.832;2022-12-18T05:31:45;-7.50;99.90
7566;DHT22;3824;48.010;7.832;2022-12-18T05:48:59;-7.60;99.90
7566;DHT22;3824;48.010;7.832;2022-12-18T05:58:51;-7.90;99.90
7566;DHT22;3824;48.010;7.832;2022-12-18T06:01:21;-8.00;99.90
7566;DHT22;3824;48.010;7.832;2022-12-18T06:06:17;-8.00;99.90
7566;DHT22;3824;48.010;7.832;2022-12-18T06:16:07;-8.00;99.90
7566;DHT22;3824;48.010;7.832;2022-12-18T06:25:57;-8.10;99.90
7566;DHT22;3824;48.010;7.832;2022-12-18T07:07:42;-8.20;99.90
7566;DHT22;3824;48.010;7.832;2022-12-18T07:10:09;-8.20;99.90
7566;DHT22;3824;48.010;7.832;2022-12-18T07:15:04;-8.20;99.90
7566;DHT22;3824;48.010;7.832;2022-12-18T07:22:26;-8.20;99.90
7566;DHT22;3824;48.010;7.832;2022-12-18T07:24:54;-8.20;99.90
7566;DHT22;3824;48.010;7.832;2022-12-18T07:42:05;-8.10;99.90
7566;DHT22;3824;48.010;7.832;2022-12-18T08:14:19;-7.00;99.90
7566;DHT22;3824;48.010;7.832;2022-12-18T08:24:09;-6.70;99.90
7566;DHT22;3824;48.010;7.832;2022-12-18T08:31:32;-6.40;99.90
7566;DHT22;3824;48.010;7.832;2022-12-18T08:46:35;-6.00;99.90
7566;DHT22;3824;48.010;7.832;2022-12-18T09:03:48;-5.80;99.90
7566;DHT22;3824;48.010;7.832;2022-12-18T09:11:15;-5.70;99.90
7566;DHT22;3824;48.010;7.832;2022-12-18T09:31:04;-6.20;99.90
7566;DHT22;3824;48.010;7.832;2022-12-18T09:36:01;-6.20;99.90
7566;DHT22;3824;48.010;7.832;2022-12-18T09:38:30;-6.20;99.90
7566;DHT22;3824;48.010;7.832;2022-12-18T09:41:00;-6.20;99.90
7566;DHT22;3824;48.010;7.832;2022-12-18T09:43:35;-6.20;99.90
7566;DHT22;3824;48.010;7.832;2022-12-18T09:46:07;-6.20;99.90
7566;DHT22;3824;48.010;7.832;2022-12-18T09:48:38;-6.10;99.90
7566;DHT22;3824;48.010;7.832;2022-12-18T09:51:13;-6.00;99.90
7566;DHT22;3824;48.010;7.832;2022-12-18T09:53:45;-5.90;99.90
7566;DHT22;3824;48.010;7.832;2022-12-18T09:56:17;-5.90;99.90
7566;DHT22;3824;48.010;7.832;2022-12-18T09:58:51;-5.30;99.90
7566;DHT22;3824;48.010;7.832;2022-12-18T10:01:21;-5.80;99.90
7566;DHT22;3824;48.010;7.832;2022-12-18T10:06:22;-5.70;99.90
7566;DHT22;3824;48.010;7.832;2022-12-18T10:08:57;-5.60;99.90
7566;DHT22;3824;48.010;7.832;2022-12-18T10:11:34;-5.50;99.90
7566;DHT22;3824;48.010;7.832;2022-12-18T10:14:09;-5.50;99.90
7566;DHT22;3824;48.010;7.832;2022-12-18T10:16:46;-5.40;99.90
7566;DHT22;3824;48.010;7.832;2022-12-18T10:19:30;-5.30;99.90
7566;DHT22;3824;48.010;7.832;2022-12-18T10:22:07;-5.20;99.90
7566;DHT22;3824;48.010;7.832;2022-12-18T10:24:44;-5.10;99.90
7566;DHT22;3824;48.010;7.832;2022-12-18T10:27:16;-5.00;99.90
7566;DHT22;3824;48.010;7.832;2022-12-18T10:29:44;-5.00;99.90
7566;DHT22;3824;48.010;7.832;2022-12-18T10:32:14;-5.00;99.90
7566;DHT22;3824;48.010;7.832;2022-12-18T10:37:15;-4.80;99.90
7566;DHT22;3824;48.010;7.832;2022-12-18T10:39:44;-4.70;99.90
7566;DHT22;3824;48.010;7.832;2022-12-18T10:42:16;-4.60;99.90
7566;DHT22;3824;48.010;7.832;2022-12-18T10:47:14;-4.50;99.90
7566;DHT22;3824;48.010;7.832;2022-12-18T10:49:47;-4.50;99.90
7566;DHT22;3824;48.010;7.832;2022-12-18T10:52:18;-4.50;99.90
7566;DHT22;3824;48.010;7.832;2022-12-18T10:54:51;-4.50;99.90
7566;DHT22;3824;48.010;7.832;2022-12-18T10:57:32;-6.50;99.90
7566;DHT22;3824;48.010;7.832;2022-12-18T11:00:18;-4.50;99.90
7566;DHT22;3824;48.010;7.832;2022-12-18T11:05:24;-4.40;99.90
7566;DHT22;3824;48.010;7.832;2022-12-18T11:10:22;-4.10;99.90
7566;DHT22;3824;48.010;7.832;2022-12-18T11:17:48;-4.00;99.90
7566;DHT22;3824;48.010;7.832;2022-12-18T11:20:30;-4.00;99.90
7566;DHT22;3824;48.010;7.832;2022-12-18T11:22:59;-3.90;99.90
7566;DHT22;3824;48.010;7.832;2022-12-18T11:25:29;-3.80;99.90
7566;DHT22;3824;48.010;7.832;2022-12-18T11:27:58;-3.70;99.90
7566;DHT22;3824;48.010;7.832;2022-12-18T11:32:56;-3.60;99.90
7566;DHT22;3824;48.010;7.832;2022-12-18T11:35:40;-3.50;99.90
7566;DHT22;3824;48.010;7.832;2022-12-18T11:38:16;-3.40;99.90
7566;DHT22;3824;48.010;7.832;2022-12-18T11:40:49;-3.20;99.90
7566;DHT22;3824;48.010;7.832;2022-12-18T11:43:23;-3.10;99.90
7566;DHT22;3824;48.010;7.832;2022-12-18T11:45:55;-3.00;99.90
7566;DHT22;3824;48.010;7.832;2022-12-18T11:48:27;-2.90;99.90
7566;DHT22;3824;48.010;7.832;2022-12-18T11:50:56;-2.70;99.90
7566;DHT22;3824;48.010;7.832;2022-12-18T11:53:24;-2.70;99.90
7566;DHT22;3824;48.010;7.832;2022-12-18T11:56:02;-2.60;99.90
7566;DHT22;3824;48.010;7.832;2022-12-18T11:58:43;-2.50;99.90
7566;DHT22;3824;48.010;7.832;2022-12-18T12:01:18;-2.40;99.90
7566;DHT22;3824;48.010;7.832;2022-12-18T12:04:15;-2.30;99.90
7566;DHT22;3824;48.010;7.832;2022-12-18T12:06:53;-2.30;99.90
7566;DHT22;3824;48.010;7.832;2022-12-18T12:09:30;-2.20;99.90
7566;DHT22;3824;48.010;7.832;2022-12-18T12:14:47;-2.10;99.90
7566;DHT22;3824;48.010;7.832;2022-12-18T12:17:25;-2.20;99.90
7566;DHT22;3824;48.010;7.832;2022-12-18T12:20:00;-2.50;99.90
7566;DHT22;3824;48.010;7.832;2022-12-18T12:22:34;-2.60;99.90
7566;DHT22;3824;48.010;7.832;2022-12-18T12:25:16;-2.70;99.90
7566;DHT22;3824;48.010;7.832;2022-12-18T12:27:56;-2.70;99.90
7566;DHT22;3824;48.010;7.832;2022-12-18T12:30:32;-2.70;99.90
7566;DHT22;3824;48.010;7.832;2022-12-18T12:33:08;-2.80;99.90
7566;DHT22;3824;48.010;7.832;2022-12-18T12:35:47;-2.80;99.90
7566;DHT22;3824;48.010;7.832;2022-12-18T12:38:19;-2.80;99.90
7566;DHT22;3824;48.010;7.832;2022-12-18T12:40:51;-2.80;99.90
7566;DHT22;3824;48.010;7.832;2022-12-18T12:43:28;-2.80;99.90
7566;DHT22;3824;48.010;7.832;2022-12-18T12:45:58;-2.80;99.90
7566;DHT22;3824;48.010;7.832;2022-12-18T12:48:40;-2.80;99.90
7566;DHT22;3824;48.010;7.832;2022-12-18T12:51:13;-2.60;99.90
7566;DHT22;3824;48.010;7.832;2022-12-18T12:56:11;-2.40;99.90
